sensor_id;sensor_type;location;lat;lon;timestamp;P1;durP1;ratioP1;P2;durP2;ratioP2
78183;SDS011;67442;44.570;18.610;2024-02-14T00:01:11;116.60;;;39.60;;
78183;SDS011;67442;44.570;18.610;2024-02-14T00:03:39;209.50;;;67.80;;
78183;SDS011;67442;44.570;18.610;2024-02-14T00:06:06;198.90;;;68.97;;
78183;SDS011;67442;44.570;18.610;2024-02-14T00:08:34;168.52;;;56.13;;
78183;SDS011;67442;44.570;18.610;2024-02-14T00:11:01;145.02;;;49.33;;
78183;SDS011;67442;44.570;18.610;2024-02-14T00:13:28;106.68;;;37.80;;
78183;SDS011;67442;44.570;18.610;2024-02-14T00:16:00;114.32;;;39.55;;
78183;SDS011;67442;44.570;18.610;2024-02-14T00:18:28;121.50;;;45.17;;
78183;SDS011;67442;44.570;18.610;2024-02-14T00:20:55;133.52;;;44.90;;
78183;SDS011;67442;44.570;18.610;2024-02-14T00:23:22;117.55;;;41.70;;
78183;SDS011;67442;44.570;18.610;2024-02-14T00:25:49;128.15;;;44.78;;
78183;SDS011;67442;44.570;18.610;2024-02-14T00:28:20;102.05;;;34.58;;
78183;SDS011;67442;44.570;18.610;2024-02-14T00:33:19;91.93;;;33.80;;
78183;SDS011;67442;44.570;18.610;2024-02-14T00:35:47;104.18;;;36.30;;
78183;SDS011;67442;44.570;18.610;2024-02-14T00:38:15;143.73;;;45.13;;
78183;SDS011;67442;44.570;18.610;2024-02-14T00:40:42;129.93;;;43.20;;
78183;SDS011;67442;44.570;18.610;2024-02-14T00:43:10;109.10;;;41.03;;
78183;SDS011;67442;44.570;18.610;2024-02-14T00:45:37;129.27;;;42.92;;
78183;SDS011;67442;44.570;18.610;2024-02-14T00:48:05;79.97;;;30.77;;
78183;SDS011;67442;44.570;18.610;2024-02-14T00:50:32;87.18;;;30.73;;
78183;SDS011;67442;44.570;18.610;2024-02-14T00:53:00;61.25;;;23.08;;
78183;SDS011;67442;44.570;18.610;2024-02-14T00:55:27;81.68;;;27.52;;
78183;SDS011;67442;44.570;18.610;2024-02-14T00:57:54;172.77;;;58.53;;
78183;SDS011;67442;44.570;18.610;2024-02-14T01:00:22;129.27;;;45.25;;
78183;SDS011;67442;44.570;18.610;2024-02-14T01:02:49;68.82;;;25.65;;
78183;SDS011;67442;44.570;18.610;2024-02-14T01:05:16;54.75;;;19.45;;
78183;SDS011;67442;44.570;18.610;2024-02-14T01:07:44;45.20;;;17.77;;
78183;SDS011;67442;44.570;18.610;2024-02-14T01:10:12;52.97;;;19.13;;
78183;SDS011;67442;44.570;18.610;2024-02-14T01:12:39;79.18;;;26.20;;
78183;SDS011;67442;44.570;18.610;2024-02-14T01:15:07;118.38;;;41.55;;
78183;SDS011;67442;44.570;18.610;2024-02-14T01:17:35;72.97;;;26.88;;
78183;SDS011;67442;44.570;18.610;2024-02-14T01:20:04;70.65;;;26.90;;
78183;SDS011;67442;44.570;18.610;2024-02-14T01:22:34;105.53;;;35.50;;
78183;SDS011;67442;44.570;18.610;2024-02-14T01:25:02;119.10;;;38.45;;
78183;SDS011;67442;44.570;18.610;2024-02-14T01:27:30;83.50;;;31.70;;
78183;SDS011;67442;44.570;18.610;2024-02-14T01:29:57;140.30;;;45.33;;
78183;SDS011;67442;44.570;18.610;2024-02-14T01:32:25;101.05;;;35.80;;
78183;SDS011;67442;44.570;18.610;2024-02-14T01:34:55;182.23;;;59.22;;
78183;SDS011;67442;44.570;18.610;2024-02-14T01:37:22;136.80;;;49.70;;
78183;SDS011;67442;44.570;18.610;2024-02-14T01:39:50;146.30;;;48.10;;
78183;SDS011;67442;44.570;18.610;2024-02-14T01:42:17;125.80;;;43.95;;
78183;SDS011;67442;44.570;18.610;2024-02-14T01:44:46;112.18;;;39.63;;
78183;SDS011;67442;44.570;18.610;2024-02-14T01:47:13;105.32;;;39.95;;
78183;SDS011;67442;44.570;18.610;2024-02-14T01:49:41;106.15;;;38.65;;
78183;SDS011;67442;44.570;18.610;2024-02-14T01:52:09;140.18;;;46.03;;
78183;SDS011;67442;44.570;18.610;2024-02-14T01:54:36;168.18;;;55.35;;
78183;SDS011;67442;44.570;18.610;2024-02-14T01:57:04;154.90;;;51.47;;
78183;SDS011;67442;44.570;18.610;2024-02-14T01:59:32;163.77;;;56.08;;
78183;SDS011;67442;44.570;18.610;2024-02-14T02:02:01;156.43;;;54.20;;
78183;SDS011;67442;44.570;18.610;2024-02-14T02:04:28;112.95;;;40.47;;
78183;SDS011;67442;44.570;18.610;2024-02-14T02:06:56;125.65;;;43.08;;
78183;SDS011;67442;44.570;18.610;2024-02-14T02:09:23;121.55;;;43.67;;
78183;SDS011;67442;44.570;18.610;2024-02-14T02:11:51;123.03;;;43.45;;
78183;SDS011;67442;44.570;18.610;2024-02-14T02:14:37;184.18;;;59.70;;
78183;SDS011;67442;44.570;18.610;2024-02-14T02:17:06;188.45;;;58.35;;
78183;SDS011;67442;44.570;18.610;2024-02-14T02:19:35;200.75;;;66.50;;
78183;SDS011;67442;44.570;18.610;2024-02-14T02:22:02;186.27;;;60.85;;
78183;SDS011;67442;44.570;18.610;2024-02-14T02:24:30;148.88;;;48.92;;
78183;SDS011;67442;44.570;18.610;2024-02-14T02:26:57;139.27;;;48.85;;
78183;SDS011;67442;44.570;18.610;2024-02-14T02:29:25;96.32;;;37.10;;
78183;SDS011;67442;44.570;18.610;2024-02-14T02:31:51;112.60;;;39.47;;
78183;SDS011;67442;44.570;18.610;2024-02-14T02:34:19;114.20;;;38.80;;
78183;SDS011;67442;44.570;18.610;2024-02-14T02:36:46;162.00;;;53.45;;
78183;SDS011;67442;44.570;18.610;2024-02-14T02:39:16;273.05;;;83.90;;
78183;SDS011;67442;44.570;18.610;2024-02-14T02:41:43;224.63;;;71.35;;
78183;SDS011;67442;44.570;18.610;2024-02-14T02:44:12;152.27;;;53.97;;
78183;SDS011;67442;44.570;18.610;2024-02-14T02:46:40;155.77;;;55.08;;
78183;SDS011;67442;44.570;18.610;2024-02-14T02:49:09;184.13;;;59.88;;
78183;SDS011;67442;44.570;18.610;2024-02-14T02:51:39;169.98;;;58.13;;
78183;SDS011;67442;44.570;18.610;2024-02-14T02:54:06;162.77;;;56.08;;
78183;SDS011;67442;44.570;18.610;2024-02-14T02:56:34;135.48;;;48.58;;
78183;SDS011;67442;44.570;18.610;2024-02-14T02:59:01;151.65;;;51.28;;
78183;SDS011;67442;44.570;18.610;2024-02-14T03:01:34;153.57;;;54.63;;
78183;SDS011;67442;44.570;18.610;2024-02-14T03:04:01;148.60;;;51.83;;
78183;SDS011;67442;44.570;18.610;2024-02-14T03:06:28;166.95;;;54.33;;
78183;SDS011;67442;44.570;18.610;2024-02-14T03:08:55;148.30;;;51.42;;
78183;SDS011;67442;44.570;18.610;2024-02-14T03:11:22;161.95;;;55.72;;
78183;SDS011;67442;44.570;18.610;2024-02-14T03:13:52;157.18;;;54.75;;
78183;SDS011;67442;44.570;18.610;2024-02-14T03:16:19;172.10;;;56.63;;
78183;SDS011;67442;44.570;18.610;2024-02-14T03:18:46;155.35;;;53.38;;
78183;SDS011;67442;44.570;18.610;2024-02-14T03:21:14;140.68;;;50.25;;
78183;SDS011;67442;44.570;18.610;2024-02-14T03:23:41;129.30;;;50.08;;
78183;SDS011;67442;44.570;18.610;2024-02-14T03:26:11;124.55;;;45.58;;
78183;SDS011;67442;44.570;18.610;2024-02-14T03:28:39;122.38;;;44.65;;
78183;SDS011;67442;44.570;18.610;2024-02-14T03:31:06;227.35;;;70.50;;
78183;SDS011;67442;44.570;18.610;2024-02-14T03:33:36;187.43;;;63.65;;
78183;SDS011;67442;44.570;18.610;2024-02-14T03:36:04;179.20;;;63.38;;
78183;SDS011;67442;44.570;18.610;2024-02-14T03:38:32;364.83;;;132.68;;
78183;SDS011;67442;44.570;18.610;2024-02-14T03:40:59;254.90;;;84.45;;
78183;SDS011;67442;44.570;18.610;2024-02-14T03:43:26;91.85;;;35.75;;
78183;SDS011;67442;44.570;18.610;2024-02-14T03:45:54;163.05;;;57.08;;
78183;SDS011;67442;44.570;18.610;2024-02-14T03:48:21;119.50;;;44.35;;
78183;SDS011;67442;44.570;18.610;2024-02-14T03:50:48;132.85;;;47.50;;
78183;SDS011;67442;44.570;18.610;2024-02-14T03:53:16;132.82;;;46.92;;
78183;SDS011;67442;44.570;18.610;2024-02-14T03:55:43;69.85;;;26.60;;
78183;SDS011;67442;44.570;18.610;2024-02-14T03:58:10;67.30;;;26.85;;
78183;SDS011;67442;44.570;18.610;2024-02-14T04:00:40;67.32;;;23.90;;
78183;SDS011;67442;44.570;18.610;2024-02-14T04:03:12;57.70;;;21.38;;
78183;SDS011;67442;44.570;18.610;2024-02-14T04:05:39;105.72;;;35.58;;
78183;SDS011;67442;44.570;18.610;2024-02-14T04:08:07;128.40;;;38.90;;
78183;SDS011;67442;44.570;18.610;2024-02-14T04:10:36;329.90;;;80.70;;
78183;SDS011;67442;44.570;18.610;2024-02-14T04:13:03;179.85;;;55.28;;
78183;SDS011;67442;44.570;18.610;2024-02-14T04:15:31;76.78;;;23.92;;
78183;SDS011;67442;44.570;18.610;2024-02-14T04:17:57;62.80;;;23.20;;
78183;SDS011;67442;44.570;18.610;2024-02-14T04:20:26;95.18;;;34.00;;
78183;SDS011;67442;44.570;18.610;2024-02-14T04:22:54;76.78;;;29.52;;
78183;SDS011;67442;44.570;18.610;2024-02-14T04:25:21;78.80;;;29.67;;
78183;SDS011;67442;44.570;18.610;2024-02-14T04:27:48;98.93;;;35.92;;
78183;SDS011;67442;44.570;18.610;2024-02-14T04:30:15;128.68;;;40.30;;
78183;SDS011;67442;44.570;18.610;2024-02-14T04:32:43;118.10;;;39.22;;
78183;SDS011;67442;44.570;18.610;2024-02-14T04:35:10;93.70;;;31.23;;
78183;SDS011;67442;44.570;18.610;2024-02-14T04:37:38;85.28;;;31.98;;
78183;SDS011;67442;44.570;18.610;2024-02-14T04:40:09;94.40;;;34.08;;
78183;SDS011;67442;44.570;18.610;2024-02-14T04:42:37;116.72;;;38.22;;
78183;SDS011;67442;44.570;18.610;2024-02-14T04:45:04;129.93;;;43.10;;
78183;SDS011;67442;44.570;18.610;2024-02-14T04:47:33;114.47;;;36.92;;
78183;SDS011;67442;44.570;18.610;2024-02-14T04:50:00;85.68;;;30.50;;
78183;SDS011;67442;44.570;18.610;2024-02-14T04:52:29;81.35;;;30.55;;
78183;SDS011;67442;44.570;18.610;2024-02-14T04:54:57;72.97;;;28.80;;
78183;SDS011;67442;44.570;18.610;2024-02-14T04:57:24;98.25;;;38.47;;
78183;SDS011;67442;44.570;18.610;2024-02-14T04:59:51;106.30;;;34.85;;
78183;SDS011;67442;44.570;18.610;2024-02-14T05:02:19;76.82;;;29.38;;
78183;SDS011;67442;44.570;18.610;2024-02-14T05:04:46;57.88;;;22.45;;
78183;SDS011;67442;44.570;18.610;2024-02-14T05:07:14;48.17;;;20.30;;
78183;SDS011;67442;44.570;18.610;2024-02-14T05:09:41;98.43;;;36.10;;
78183;SDS011;67442;44.570;18.610;2024-02-14T05:12:10;95.82;;;34.10;;
78183;SDS011;67442;44.570;18.610;2024-02-14T05:14:37;109.05;;;34.60;;
78183;SDS011;67442;44.570;18.610;2024-02-14T05:17:06;98.03;;;33.75;;
78183;SDS011;67442;44.570;18.610;2024-02-14T05:19:34;69.95;;;26.63;;
78183;SDS011;67442;44.570;18.610;2024-02-14T05:22:01;83.88;;;25.52;;
78183;SDS011;67442;44.570;18.610;2024-02-14T05:24:28;72.22;;;22.98;;
78183;SDS011;67442;44.570;18.610;2024-02-14T05:26:57;51.88;;;18.75;;
78183;SDS011;67442;44.570;18.610;2024-02-14T05:29:24;49.00;;;18.92;;
78183;SDS011;67442;44.570;18.610;2024-02-14T05:31:51;60.25;;;20.83;;
78183;SDS011;67442;44.570;18.610;2024-02-14T05:34:21;69.68;;;23.67;;
78183;SDS011;67442;44.570;18.610;2024-02-14T05:36:48;54.25;;;20.85;;
78183;SDS011;67442;44.570;18.610;2024-02-14T05:39:17;90.38;;;26.17;;
78183;SDS011;67442;44.570;18.610;2024-02-14T05:41:44;69.65;;;25.48;;
78183;SDS011;67442;44.570;18.610;2024-02-14T05:44:12;72.95;;;27.75;;
78183;SDS011;67442;44.570;18.610;2024-02-14T05:46:38;72.10;;;21.25;;
78183;SDS011;67442;44.570;18.610;2024-02-14T05:49:06;58.13;;;21.08;;
78183;SDS011;67442;44.570;18.610;2024-02-14T05:51:34;53.03;;;21.08;;
78183;SDS011;67442;44.570;18.610;2024-02-14T05:54:01;61.55;;;18.92;;
78183;SDS011;67442;44.570;18.610;2024-02-14T05:56:29;54.60;;;18.35;;
78183;SDS011;67442;44.570;18.610;2024-02-14T05:58:56;75.75;;;25.08;;
78183;SDS011;67442;44.570;18.610;2024-02-14T06:01:23;77.88;;;27.33;;
78183;SDS011;67442;44.570;18.610;2024-02-14T06:03:51;85.82;;;28.05;;
78183;SDS011;67442;44.570;18.610;2024-02-14T06:06:17;86.03;;;30.80;;
78183;SDS011;67442;44.570;18.610;2024-02-14T06:08:45;70.82;;;26.52;;
78183;SDS011;67442;44.570;18.610;2024-02-14T06:11:13;69.47;;;26.30;;
78183;SDS011;67442;44.570;18.610;2024-02-14T06:13:41;58.72;;;21.80;;
78183;SDS011;67442;44.570;18.610;2024-02-14T06:16:09;69.13;;;30.85;;
78183;SDS011;67442;44.570;18.610;2024-02-14T06:18:37;60.80;;;21.83;;
78183;SDS011;67442;44.570;18.610;2024-02-14T06:21:05;80.00;;;31.90;;
78183;SDS011;67442;44.570;18.610;2024-02-14T06:23:33;192.85;;;72.68;;
78183;SDS011;67442;44.570;18.610;2024-02-14T06:26:00;113.50;;;43.08;;
78183;SDS011;67442;44.570;18.610;2024-02-14T06:28:27;123.85;;;46.70;;
78183;SDS011;67442;44.570;18.610;2024-02-14T06:30:54;78.80;;;28.52;;
78183;SDS011;67442;44.570;18.610;2024-02-14T06:33:22;70.25;;;28.15;;
78183;SDS011;67442;44.570;18.610;2024-02-14T06:35:49;84.82;;;30.45;;
78183;SDS011;67442;44.570;18.610;2024-02-14T06:38:16;247.52;;;68.25;;
78183;SDS011;67442;44.570;18.610;2024-02-14T06:40:44;118.00;;;37.42;;
78183;SDS011;67442;44.570;18.610;2024-02-14T06:43:12;132.20;;;48.60;;
78183;SDS011;67442;44.570;18.610;2024-02-14T06:45:39;170.93;;;62.35;;
78183;SDS011;67442;44.570;18.610;2024-02-14T06:48:07;380.00;;;120.95;;
78183;SDS011;67442;44.570;18.610;2024-02-14T06:50:34;249.88;;;82.07;;
78183;SDS011;67442;44.570;18.610;2024-02-14T06:53:01;190.30;;;64.60;;
78183;SDS011;67442;44.570;18.610;2024-02-14T06:55:28;267.17;;;87.07;;
78183;SDS011;67442;44.570;18.610;2024-02-14T06:57:58;129.90;;;49.33;;
78183;SDS011;67442;44.570;18.610;2024-02-14T07:00:25;141.02;;;56.53;;
78183;SDS011;67442;44.570;18.610;2024-02-14T07:02:54;153.85;;;59.78;;
78183;SDS011;67442;44.570;18.610;2024-02-14T07:05:21;129.63;;;53.40;;
78183;SDS011;67442;44.570;18.610;2024-02-14T07:07:48;126.13;;;47.75;;
78183;SDS011;67442;44.570;18.610;2024-02-14T07:10:16;132.68;;;49.58;;
78183;SDS011;67442;44.570;18.610;2024-02-14T07:12:44;123.30;;;46.92;;
78183;SDS011;67442;44.570;18.610;2024-02-14T07:15:11;126.88;;;49.80;;
78183;SDS011;67442;44.570;18.610;2024-02-14T07:17:39;122.35;;;46.08;;
78183;SDS011;67442;44.570;18.610;2024-02-14T07:20:06;163.85;;;57.75;;
78183;SDS011;67442;44.570;18.610;2024-02-14T07:22:38;329.75;;;120.00;;
78183;SDS011;67442;44.570;18.610;2024-02-14T07:25:05;121.30;;;47.22;;
78183;SDS011;67442;44.570;18.610;2024-02-14T07:27:33;126.43;;;43.13;;
78183;SDS011;67442;44.570;18.610;2024-02-14T07:30:01;379.25;;;129.63;;
78183;SDS011;67442;44.570;18.610;2024-02-14T07:32:28;590.15;;;185.52;;
78183;SDS011;67442;44.570;18.610;2024-02-14T07:34:55;391.95;;;106.63;;
78183;SDS011;67442;44.570;18.610;2024-02-14T07:37:23;270.88;;;70.60;;
78183;SDS011;67442;44.570;18.610;2024-02-14T07:39:51;71.13;;;24.50;;
78183;SDS011;67442;44.570;18.610;2024-02-14T07:42:17;66.30;;;22.98;;
78183;SDS011;67442;44.570;18.610;2024-02-14T07:44:44;88.32;;;34.15;;
78183;SDS011;67442;44.570;18.610;2024-02-14T07:47:11;101.70;;;39.95;;
78183;SDS011;67442;44.570;18.610;2024-02-14T07:49:39;141.90;;;52.53;;
78183;SDS011;67442;44.570;18.610;2024-02-14T07:52:06;146.93;;;60.33;;
78183;SDS011;67442;44.570;18.610;2024-02-14T07:54:34;92.47;;;38.28;;
78183;SDS011;67442;44.570;18.610;2024-02-14T07:57:01;143.52;;;52.67;;
78183;SDS011;67442;44.570;18.610;2024-02-14T07:59:28;116.20;;;44.65;;
78183;SDS011;67442;44.570;18.610;2024-02-14T08:01:55;61.33;;;27.05;;
78183;SDS011;67442;44.570;18.610;2024-02-14T08:04:23;55.42;;;23.58;;
78183;SDS011;67442;44.570;18.610;2024-02-14T08:06:49;64.55;;;24.65;;
78183;SDS011;67442;44.570;18.610;2024-02-14T08:09:16;45.90;;;21.27;;
78183;SDS011;67442;44.570;18.610;2024-02-14T08:11:43;44.10;;;19.38;;
78183;SDS011;67442;44.570;18.610;2024-02-14T08:14:10;52.83;;;20.10;;
78183;SDS011;67442;44.570;18.610;2024-02-14T08:16:38;48.60;;;21.10;;
78183;SDS011;67442;44.570;18.610;2024-02-14T08:19:05;44.40;;;19.83;;
78183;SDS011;67442;44.570;18.610;2024-02-14T08:21:32;39.65;;;17.25;;
78183;SDS011;67442;44.570;18.610;2024-02-14T08:24:00;49.22;;;18.00;;
78183;SDS011;67442;44.570;18.610;2024-02-14T08:26:27;37.78;;;16.77;;
78183;SDS011;67442;44.570;18.610;2024-02-14T08:28:54;40.70;;;17.60;;
78183;SDS011;67442;44.570;18.610;2024-02-14T08:31:21;38.95;;;16.55;;
78183;SDS011;67442;44.570;18.610;2024-02-14T08:33:48;38.45;;;15.65;;
78183;SDS011;67442;44.570;18.610;2024-02-14T08:36:15;32.40;;;14.68;;
78183;SDS011;67442;44.570;18.610;2024-02-14T08:38:44;41.47;;;20.00;;
78183;SDS011;67442;44.570;18.610;2024-02-14T08:41:12;25.73;;;11.68;;
78183;SDS011;67442;44.570;18.610;2024-02-14T08:43:39;26.08;;;11.75;;
78183;SDS011;67442;44.570;18.610;2024-02-14T08:46:10;26.08;;;10.60;;
78183;SDS011;67442;44.570;18.610;2024-02-14T08:48:37;29.85;;;13.13;;
78183;SDS011;67442;44.570;18.610;2024-02-14T08:51:13;24.80;;;10.23;;
78183;SDS011;67442;44.570;18.610;2024-02-14T08:53:41;16.10;;;8.00;;
78183;SDS011;67442;44.570;18.610;2024-02-14T08:56:09;19.75;;;8.57;;
78183;SDS011;67442;44.570;18.610;2024-02-14T08:58:36;19.90;;;8.63;;
78183;SDS011;67442;44.570;18.610;2024-02-14T09:01:04;33.83;;;15.93;;
78183;SDS011;67442;44.570;18.610;2024-02-14T09:03:32;35.17;;;18.13;;
78183;SDS011;67442;44.570;18.610;2024-02-14T09:06:00;33.47;;;16.27;;
78183;SDS011;67442;44.570;18.610;2024-02-14T09:08:29;23.80;;;10.95;;
78183;SDS011;67442;44.570;18.610;2024-02-14T09:10:56;40.55;;;16.05;;
78183;SDS011;67442;44.570;18.610;2024-02-14T09:13:24;36.63;;;19.77;;
78183;SDS011;67442;44.570;18.610;2024-02-14T09:15:53;35.42;;;17.77;;
78183;SDS011;67442;44.570;18.610;2024-02-14T09:18:20;34.42;;;16.08;;
78183;SDS011;67442;44.570;18.610;2024-02-14T09:20:50;29.63;;;16.73;;
78183;SDS011;67442;44.570;18.610;2024-02-14T09:23:17;34.78;;;14.35;;
78183;SDS011;67442;44.570;18.610;2024-02-14T09:25:46;22.00;;;10.43;;
78183;SDS011;67442;44.570;18.610;2024-02-14T09:28:13;31.70;;;13.48;;
78183;SDS011;67442;44.570;18.610;2024-02-14T09:30:40;21.30;;;9.85;;
78183;SDS011;67442;44.570;18.610;2024-02-14T09:33:07;15.93;;;7.65;;
78183;SDS011;67442;44.570;18.610;2024-02-14T09:35:38;29.85;;;15.05;;
78183;SDS011;67442;44.570;18.610;2024-02-14T09:38:13;28.58;;;11.50;;
78183;SDS011;67442;44.570;18.610;2024-02-14T09:41:21;20.15;;;10.27;;
78183;SDS011;67442;44.570;18.610;2024-02-14T09:43:44;21.02;;;9.30;;
78183;SDS011;67442;44.570;18.610;2024-02-14T09:46:12;31.58;;;13.00;;
78183;SDS011;67442;44.570;18.610;2024-02-14T09:48:43;17.48;;;9.00;;
78183;SDS011;67442;44.570;18.610;2024-02-14T09:51:10;18.92;;;8.57;;
78183;SDS011;67442;44.570;18.610;2024-02-14T09:53:41;25.70;;;9.35;;
78183;SDS011;67442;44.570;18.610;2024-02-14T09:56:09;17.95;;;8.90;;
78183;SDS011;67442;44.570;18.610;2024-02-14T09:58:37;18.13;;;9.52;;
78183;SDS011;67442;44.570;18.610;2024-02-14T10:01:04;17.30;;;8.20;;
78183;SDS011;67442;44.570;18.610;2024-02-14T10:03:32;18.80;;;7.97;;
78183;SDS011;67442;44.570;18.610;2024-02-14T10:06:01;15.05;;;7.95;;
78183;SDS011;67442;44.570;18.610;2024-02-14T10:08:29;24.40;;;10.73;;
78183;SDS011;67442;44.570;18.610;2024-02-14T10:10:57;17.20;;;7.38;;
78183;SDS011;67442;44.570;18.610;2024-02-14T10:13:28;19.23;;;9.90;;
78183;SDS011;67442;44.570;18.610;2024-02-14T10:15:57;17.90;;;10.10;;
78183;SDS011;67442;44.570;18.610;2024-02-14T10:18:24;20.67;;;9.82;;
78183;SDS011;67442;44.570;18.610;2024-02-14T10:20:53;13.07;;;7.18;;
78183;SDS011;67442;44.570;18.610;2024-02-14T10:23:20;18.52;;;10.30;;
78183;SDS011;67442;44.570;18.610;2024-02-14T10:25:49;21.40;;;8.27;;
78183;SDS011;67442;44.570;18.610;2024-02-14T10:28:17;30.98;;;13.88;;
78183;SDS011;67442;44.570;18.610;2024-02-14T10:30:48;18.38;;;10.57;;
78183;SDS011;67442;44.570;18.610;2024-02-14T10:33:17;19.70;;;9.60;;
78183;SDS011;67442;44.570;18.610;2024-02-14T10:35:45;18.42;;;8.73;;
78183;SDS011;67442;44.570;18.610;2024-02-14T10:38:13;13.82;;;7.85;;
78183;SDS011;67442;44.570;18.610;2024-02-14T10:40:44;24.55;;;9.73;;
78183;SDS011;67442;44.570;18.610;2024-02-14T10:43:13;22.27;;;8.88;;
78183;SDS011;67442;44.570;18.610;2024-02-14T10:45:40;19.67;;;9.10;;
78183;SDS011;67442;44.570;18.610;2024-02-14T10:48:11;24.50;;;9.07;;
78183;SDS011;67442;44.570;18.610;2024-02-14T10:50:40;30.30;;;11.35;;
78183;SDS011;67442;44.570;18.610;2024-02-14T10:53:09;17.48;;;8.23;;
78183;SDS011;67442;44.570;18.610;2024-02-14T10:55:39;19.02;;;8.23;;
78183;SDS011;67442;44.570;18.610;2024-02-14T10:58:08;14.75;;;7.65;;
78183;SDS011;67442;44.570;18.610;2024-02-14T11:00:37;16.67;;;7.75;;
78183;SDS011;67442;44.570;18.610;2024-02-14T11:03:04;19.38;;;9.98;;
78183;SDS011;67442;44.570;18.610;2024-02-14T11:05:42;18.30;;;9.75;;
78183;SDS011;67442;44.570;18.610;2024-02-14T11:08:13;18.02;;;7.18;;
78183;SDS011;67442;44.570;18.610;2024-02-14T11:10:40;17.70;;;8.07;;
78183;SDS011;67442;44.570;18.610;2024-02-14T11:13:14;13.20;;;6.88;;
78183;SDS011;67442;44.570;18.610;2024-02-14T11:15:44;16.02;;;6.75;;
78183;SDS011;67442;44.570;18.610;2024-02-14T11:18:12;20.45;;;8.85;;
78183;SDS011;67442;44.570;18.610;2024-02-14T11:20:39;14.85;;;6.63;;
78183;SDS011;67442;44.570;18.610;2024-02-14T11:23:11;15.18;;;7.05;;
78183;SDS011;67442;44.570;18.610;2024-02-14T11:25:39;15.73;;;7.18;;
78183;SDS011;67442;44.570;18.610;2024-02-14T11:28:12;19.85;;;8.18;;
78183;SDS011;67442;44.570;18.610;2024-02-14T11:30:40;26.00;;;9.50;;
78183;SDS011;67442;44.570;18.610;2024-02-14T11:35:41;20.88;;;8.52;;
78183;SDS011;67442;44.570;18.610;2024-02-14T11:38:08;37.58;;;9.27;;
78183;SDS011;67442;44.570;18.610;2024-02-14T11:40:36;49.78;;;16.33;;
78183;SDS011;67442;44.570;18.610;2024-02-14T11:43:05;20.40;;;7.15;;
78183;SDS011;67442;44.570;18.610;2024-02-14T11:45:36;13.75;;;6.60;;
78183;SDS011;67442;44.570;18.610;2024-02-14T11:48:08;11.27;;;5.55;;
78183;SDS011;67442;44.570;18.610;2024-02-14T11:50:36;15.60;;;6.80;;
78183;SDS011;67442;44.570;18.610;2024-02-14T11:53:02;20.58;;;8.27;;
78183;SDS011;67442;44.570;18.610;2024-02-14T11:55:36;37.20;;;11.82;;
78183;SDS011;67442;44.570;18.610;2024-02-14T11:58:10;21.88;;;8.70;;
78183;SDS011;67442;44.570;18.610;2024-02-14T12:00:37;25.48;;;11.43;;
78183;SDS011;67442;44.570;18.610;2024-02-14T12:03:09;14.65;;;7.50;;
78183;SDS011;67442;44.570;18.610;2024-02-14T12:05:37;16.67;;;7.70;;
78183;SDS011;67442;44.570;18.610;2024-02-14T12:08:05;295.20;;;92.03;;
78183;SDS011;67442;44.570;18.610;2024-02-14T12:10:34;40.08;;;13.98;;
78183;SDS011;67442;44.570;18.610;2024-02-14T12:13:06;17.60;;;8.07;;
78183;SDS011;67442;44.570;18.610;2024-02-14T12:15:39;21.05;;;7.07;;
78183;SDS011;67442;44.570;18.610;2024-02-14T12:18:06;18.90;;;7.18;;
78183;SDS011;67442;44.570;18.610;2024-02-14T12:20:37;98.70;;;31.65;;
78183;SDS011;67442;44.570;18.610;2024-02-14T12:23:05;20.88;;;9.45;;
78183;SDS011;67442;44.570;18.610;2024-02-14T12:25:33;14.75;;;6.30;;
78183;SDS011;67442;44.570;18.610;2024-02-14T12:27:59;37.33;;;13.13;;
78183;SDS011;67442;44.570;18.610;2024-02-14T12:30:42;17.13;;;6.75;;
78183;SDS011;67442;44.570;18.610;2024-02-14T12:33:11;18.95;;;7.35;;
78183;SDS011;67442;44.570;18.610;2024-02-14T12:35:45;82.90;;;28.35;;
78183;SDS011;67442;44.570;18.610;2024-02-14T12:38:11;12.80;;;5.70;;
78183;SDS011;67442;44.570;18.610;2024-02-14T12:40:39;20.88;;;8.02;;
78183;SDS011;67442;44.570;18.610;2024-02-14T12:43:10;14.82;;;6.75;;
78183;SDS011;67442;44.570;18.610;2024-02-14T12:45:37;19.38;;;6.88;;
78183;SDS011;67442;44.570;18.610;2024-02-14T12:48:07;14.15;;;6.82;;
78183;SDS011;67442;44.570;18.610;2024-02-14T12:50:35;11.68;;;5.65;;
78183;SDS011;67442;44.570;18.610;2024-02-14T12:53:12;12.60;;;4.30;;
78183;SDS011;67442;44.570;18.610;2024-02-14T12:55:50;49.55;;;17.08;;
78183;SDS011;67442;44.570;18.610;2024-02-14T12:58:17;17.40;;;6.35;;
78183;SDS011;67442;44.570;18.610;2024-02-14T13:00:45;14.80;;;4.38;;
78183;SDS011;67442;44.570;18.610;2024-02-14T13:03:13;13.23;;;5.40;;
78183;SDS011;67442;44.570;18.610;2024-02-14T13:05:40;18.90;;;7.45;;
78183;SDS011;67442;44.570;18.610;2024-02-14T13:08:07;12.90;;;6.35;;
78183;SDS011;67442;44.570;18.610;2024-02-14T13:10:37;8.15;;;3.53;;
78183;SDS011;67442;44.570;18.610;2024-02-14T13:13:04;16.77;;;5.45;;
78183;SDS011;67442;44.570;18.610;2024-02-14T13:15:32;11.00;;;4.38;;
78183;SDS011;67442;44.570;18.610;2024-02-14T13:17:59;98.90;;;34.85;;
78183;SDS011;67442;44.570;18.610;2024-02-14T13:20:27;33.97;;;13.45;;
78183;SDS011;67442;44.570;18.610;2024-02-14T13:22:55;7.82;;;3.72;;
78183;SDS011;67442;44.570;18.610;2024-02-14T13:25:22;10.60;;;5.20;;
78183;SDS011;67442;44.570;18.610;2024-02-14T13:27:49;11.40;;;4.40;;
78183;SDS011;67442;44.570;18.610;2024-02-14T13:30:17;189.00;;;51.67;;
78183;SDS011;67442;44.570;18.610;2024-02-14T13:32:44;29.67;;;9.80;;
78183;SDS011;67442;44.570;18.610;2024-02-14T13:35:12;8.73;;;4.45;;
78183;SDS011;67442;44.570;18.610;2024-02-14T13:37:39;11.13;;;4.63;;
78183;SDS011;67442;44.570;18.610;2024-02-14T13:40:07;16.65;;;6.93;;
78183;SDS011;67442;44.570;18.610;2024-02-14T13:42:36;8.55;;;4.28;;
78183;SDS011;67442;44.570;18.610;2024-02-14T13:45:06;13.10;;;5.82;;
78183;SDS011;67442;44.570;18.610;2024-02-14T13:47:50;11.68;;;4.18;;
78183;SDS011;67442;44.570;18.610;2024-02-14T13:50:19;8.95;;;4.50;;
78183;SDS011;67442;44.570;18.610;2024-02-14T13:52:46;10.38;;;4.68;;
78183;SDS011;67442;44.570;18.610;2024-02-14T13:55:13;8.85;;;4.10;;
78183;SDS011;67442;44.570;18.610;2024-02-14T13:57:41;11.73;;;4.97;;
78183;SDS011;67442;44.570;18.610;2024-02-14T14:00:08;16.25;;;7.07;;
78183;SDS011;67442;44.570;18.610;2024-02-14T14:02:35;10.57;;;5.53;;
78183;SDS011;67442;44.570;18.610;2024-02-14T14:05:07;21.35;;;9.35;;
78183;SDS011;67442;44.570;18.610;2024-02-14T14:07:40;12.80;;;5.47;;
78183;SDS011;67442;44.570;18.610;2024-02-14T14:10:10;22.33;;;10.23;;
78183;SDS011;67442;44.570;18.610;2024-02-14T14:12:37;9.35;;;4.93;;
78183;SDS011;67442;44.570;18.610;2024-02-14T14:15:05;9.20;;;3.97;;
78183;SDS011;67442;44.570;18.610;2024-02-14T14:17:35;13.98;;;5.05;;
78183;SDS011;67442;44.570;18.610;2024-02-14T14:20:02;7.72;;;4.22;;